Time;durP1;ratioP1;P1;durP2;ratioP2;P2;SDS_P1;SDS_P2;PMS_P1;PMS_P2;Temp;Humidity;BMP_temperature;BMP_pressure;BME280_temperature;BME280_humidity;BME280_pressure;Samples;Min_cycle;Max_cycle;Signal;HPM_P1;HPM_P2
2023/09/19 00:00:57;;;;;;;7.47;3.00;;;15.90;99.90;;;15.33;100.00;97180.59;5041754;28;20577;-73
2023/09/19 00:03:25;;;;;;;8.02;2.63;;;15.80;99.90;;;15.41;100.00;97178.28;5043850;28;20138;-74
2023/09/19 00:05:52;;;;;;;6.72;2.80;;;15.80;99.90;;;15.32;100.00;97184.97;5043296;28;20095;-74
2023/09/19 00:08:24;;;;;;;10.10;3.25;;;15.80;99.90;;;15.40;100.00;97182.66;5043978;28;20476;-74
2023/09/19 00:10:51;;;;;;;10.68;3.10;;;15.80;99.90;;;15.50;100.00;97180.25;5042148;28;20166;-74
2023/09/19 00:13:18;;;;;;;5.55;2.30;;;15.80;99.90;;;15.46;100.00;97181.41;5042614;28;20481;-74
2023/09/19 00:15:51;;;;;;;7.10;3.45;;;15.80;99.90;;;15.35;100.00;97184.78;5039252;28;20519;-74
2023/09/19 00:18:28;;;;;;;8.48;3.00;;;15.80;99.90;;;15.41;100.00;97186.94;5043852;28;20049;-74
2023/09/19 00:21:04;;;;;;;7.13;2.75;;;15.80;99.90;;;15.47;100.00;97193.56;5025800;28;20951;-74
2023/09/19 00:23:32;;;;;;;8.55;3.25;;;15.80;99.90;;;15.48;100.00;97197.81;5043027;28;20091;-74
2023/09/19 00:26:00;;;;;;;12.02;3.10;;;15.80;99.90;;;15.43;100.00;97198.16;5043000;28;20049;-74
2023/09/19 00:28:29;;;;;;;11.88;3.67;;;15.80;99.90;;;15.41;100.00;97205.25;5025098;28;20056;-74
2023/09/19 00:30:57;;;;;;;13.25;4.30;;;15.80;99.90;;;15.31;100.00;97201.59;5041975;28;20053;-74
2023/09/19 00:33:25;;;;;;;19.80;3.95;;;15.70;99.90;;;15.27;100.00;97202.75;5038639;28;20057;-73
2023/09/19 00:35:54;;;;;;;7.25;3.30;;;15.60;99.90;;;15.22;100.00;97200.44;5042701;28;20057;-74
2023/09/19 00:38:26;;;;;;;8.32;3.45;;;15.60;99.90;;;15.25;100.00;97197.59;5042036;28;20045;-74
2023/09/19 00:40:54;;;;;;;11.15;4.30;;;15.50;99.90;;;15.15;100.00;97187.91;5042255;28;20048;-74
2023/09/19 00:43:27;;;;;;;;;;;15.50;99.90;;;15.06;100.00;97187.56;5027528;28;20106;-74
2023/09/19 00:45:56;;;;;;;9.40;3.10;;;15.50;99.90;;;15.18;100.00;97192.91;5037735;28;20468;-74
2023/09/19 00:48:28;;;;;;;8.85;3.50;;;15.50;99.90;;;15.18;100.00;97185.91;5057169;28;20067;-73
2023/09/19 00:51:00;;;;;;;5.10;2.80;;;15.50;99.90;;;15.15;100.00;97172.22;5039514;28;20053;-75
2023/09/19 00:53:31;;;;;;;11.35;4.10;;;15.40;99.90;;;15.21;100.00;97171.78;5040554;28;20067;-74
2023/09/19 00:55:58;;;;;;;6.75;3.35;;;15.50;99.90;;;15.16;100.00;97169.47;5039531;28;20621;-74
2023/09/19 00:58:25;;;;;;;7.80;2.53;;;15.50;99.90;;;15.22;100.00;97173.47;5042039;28;20134;-74
2023/09/19 01:00:53;;;;;;;8.38;3.10;;;15.40;99.90;;;15.21;100.00;97177.00;5022667;28;20148;-74
2023/09/19 01:03:21;;;;;;;11.02;3.28;;;15.50;99.90;;;15.15;100.00;97174.81;5039291;28;20521;-73
2023/09/19 01:05:49;;;;;;;7.53;2.90;;;15.50;99.90;;;15.15;100.00;97175.66;5043654;28;20049;-73
2023/09/19 01:08:16;;;;;;;5.72;3.08;;;15.50;99.90;;;15.18;100.00;97179.84;5042954;28;20052;-73
2023/09/19 01:11:00;;;;;;;4.07;2.20;;;15.60;99.90;;;15.20;100.00;97189.25;5039204;28;20787;-74
2023/09/19 01:13:47;;;;;;;3.63;1.95;;;15.50;99.90;;;15.23;100.00;97196.03;5041862;28;20049;-74
2023/09/19 01:16:42;;;;;;;7.22;2.67;;;15.50;99.90;;;15.14;100.00;97192.25;5041105;28;20056;-73
2023/09/19 01:20:07;;;;;;;9.48;2.85;;;15.50;99.90;;;15.13;100.00;97200.22;5041944;28;20122;-74
2023/09/19 01:22:57;;;;;;;5.50;2.40;;;15.60;99.90;;;15.27;100.00;97198.34;5042061;28;20428;-73
2023/09/19 01:25:40;;;;;;;6.13;2.80;;;15.50;99.90;;;15.31;100.00;97191.16;5044159;28;20045;-73
2023/09/19 01:28:26;;;;;;;4.25;2.08;;;15.60;99.90;;;15.32;100.00;97184.97;5039667;28;20045;-73
2023/09/19 01:30:58;;;;;;;7.22;2.35;;;15.60;99.90;;;15.26;100.00;97188.00;5043889;28;20134;-73
2023/09/19 01:33:26;;;;;;;5.72;2.67;;;15.60;99.90;;;15.25;100.00;97199.41;5026821;28;20119;-73
2023/09/19 01:35:53;;;;;;;7.60;4.00;;;15.60;99.90;;;15.15;100.00;97212.25;5043607;28;20124;-73
2023/09/19 01:38:20;;;;;;;6.70;3.88;;;15.60;99.90;;;15.22;100.00;97204.84;5059793;28;20069;-73
2023/09/19 01:41:04;;;;;;;8.00;4.03;;;15.60;99.90;;;15.18;100.00;97216.44;5041793;28;20053;-74
2023/09/19 01:43:38;;;;;;;7.10;3.40;;;15.60;99.90;;;15.25;100.00;97220.31;5024640;28;20409;-73
2023/09/19 01:46:19;;;;;;;10.15;4.30;;;15.60;99.90;;;15.07;100.00;97230.22;5043622;28;20049;-73
2023/09/19 01:49:11;;;;;;;8.70;3.53;;;15.50;99.90;;;15.03;100.00;97237.44;5042791;28;20422;-73
2023/09/19 01:51:59;;;;;;;7.60;3.25;;;15.50;99.90;;;15.08;100.00;97244.16;5039029;28;20049;-73
2023/09/19 01:54:40;;;;;;;4.55;2.65;;;15.40;99.90;;;15.01;100.00;97251.56;5055803;28;20130;-74
2023/09/19 01:57:38;;;;;;;7.15;4.03;;;15.30;99.90;;;14.94;100.00;97260.69;5043652;28;20052;-74
2023/09/19 02:00:11;;;;;;;10.63;4.20;;;15.30;99.90;;;14.89;100.00;97247.94;5034247;28;20053;-73
2023/09/19 02:02:44;;;;;;;7.05;3.72;;;15.30;99.90;;;14.86;100.00;97256.00;5043064;28;20076;-73
2023/09/19 02:05:12;;;;;;;8.23;3.65;;;15.30;99.90;;;15.05;100.00;97256.47;5043616;28;20056;-73
2023/09/19 02:07:40;;;;;;;7.40;4.05;;;15.30;99.90;;;15.00;100.00;97261.13;5043609;28;20144;-73
2023/09/19 02:10:10;;;;;;;12.50;4.88;;;15.30;99.90;;;14.93;100.00;97259.03;5042642;28;20049;-73
2023/09/19 02:12:38;;;;;;;6.13;3.50;;;15.30;99.90;;;14.91;100.00;97271.38;5030153;28;20049;-73
2023/09/19 02:15:06;;;;;;;9.18;4.85;;;15.30;99.90;;;14.92;100.00;97267.84;5046522;28;20122;-72
2023/09/19 02:17:34;;;;;;;10.88;5.70;;;15.30;99.90;;;14.87;100.00;97272.50;5047150;28;20048;-73
2023/09/19 02:20:02;;;;;;;9.05;4.75;;;15.30;99.90;;;14.82;100.00;97276.28;5048312;28;20053;-73
2023/09/19 02:22:29;;;;;;;10.60;5.03;;;15.30;99.90;;;14.99;100.00;97288.22;5047013;28;20135;-73
2023/09/19 02:25:00;;;;;;;10.95;5.65;;;15.30;99.90;;;14.90;100.00;97288.00;5045546;28;20601;-73
2023/09/19 02:27:27;;;;;;;10.40;5.18;;;15.30;99.90;;;14.88;100.00;97293.31;5047190;28;20045;-73
2023/09/19 02:29:55;;;;;;;10.70;5.80;;;15.20;99.90;;;14.93;100.00;97288.63;5046531;28;20056;-73
2023/09/19 02:32:23;;;;;;;10.82;4.25;;;15.20;99.90;;;14.84;100.00;97297.88;5046401;28;20511;-73
2023/09/19 02:34:51;;;;;;;7.88;4.20;;;15.20;99.90;;;14.75;100.00;97301.09;5061211;28;20091;-73
2023/09/19 02:37:19;;;;;;;13.00;3.90;;;15.10;99.90;;;14.71;100.00;97307.47;5044412;28;20127;-73
2023/09/19 02:39:46;;;;;;;11.43;3.83;;;15.20;99.90;;;14.70;100.00;97303.16;5046008;28;20061;-73
2023/09/19 02:42:14;;;;;;;8.25;3.75;;;15.10;99.90;;;14.76;100.00;97307.19;5028510;28;20068;-73
2023/09/19 02:44:41;;;;;;;7.88;3.85;;;15.10;99.90;;;14.57;100.00;97310.97;5046630;28;20064;-73
2023/09/19 02:47:09;;;;;;;8.23;4.13;;;15.00;99.90;;;14.50;100.00;97308.78;5045049;28;20118;-73
2023/09/19 02:49:36;;;;;;;9.75;4.22;;;15.00;99.90;;;14.58;100.00;97310.00;5046537;28;20049;-73
2023/09/19 02:52:04;;;;;;;13.27;3.50;;;15.00;99.90;;;14.57;100.00;97318.78;5042261;28;20053;-73
2023/09/19 02:54:32;;;;;;;14.38;5.63;;;14.90;99.90;;;14.51;100.00;97319.13;5047234;28;20146;-73
2023/09/19 02:56:59;;;;;;;7.90;4.40;;;14.90;99.90;;;14.49;100.00;97309.72;5045408;28;20057;-73
2023/09/19 02:59:28;;;;;;;11.32;3.70;;;14.90;99.90;;;14.43;100.00;97318.75;5045878;28;20098;-73
2023/09/19 03:01:55;;;;;;;8.90;3.63;;;14.90;99.90;;;14.34;100.00;97311.50;5046229;28;20663;-73
2023/09/19 03:04:22;;;;;;;12.65;4.38;;;14.90;99.90;;;14.30;100.00;97325.66;5046212;28;20041;-74
2023/09/19 03:06:51;;;;;;;8.20;3.33;;;14.90;99.90;;;14.32;100.00;97323.81;5047573;28;20132;-73
2023/09/19 03:09:19;;;;;;;12.43;3.35;;;14.90;99.90;;;14.21;100.00;97330.53;5045062;28;20543;-73
2023/09/19 03:11:47;;;;;;;10.63;3.30;;;14.80;99.90;;;14.31;100.00;97330.81;5045780;28;20136;-73
2023/09/19 03:14:15;;;;;;;7.15;3.13;;;14.80;99.90;;;14.25;100.00;97327.75;5029869;28;20081;-73
2023/09/19 03:16:44;;;;;;;10.90;3.20;;;14.80;99.90;;;14.13;100.00;97321.50;5046717;28;20053;-73
2023/09/19 03:19:12;;;;;;;7.38;2.42;;;14.70;99.90;;;14.19;100.00;97326.34;5046583;28;20041;-73
2023/09/19 03:21:39;;;;;;;7.85;2.40;;;14.70;99.90;;;14.13;100.00;97338.00;5044226;28;20085;-73
2023/09/19 03:24:06;;;;;;;11.10;2.75;;;14.70;99.90;;;14.05;100.00;97327.19;5043916;28;20067;-73
2023/09/19 03:26:33;;;;;;;7.75;2.35;;;14.70;99.90;;;14.07;100.00;97330.56;5046125;28;20045;-73
2023/09/19 03:29:07;;;;;;;6.43;2.13;;;14.60;99.90;;;13.97;100.00;97327.63;5046588;28;20501;-73
2023/09/19 03:31:36;;;;;;;10.85;2.38;;;14.60;99.90;;;14.09;100.00;97328.66;5044390;28;20055;-73
2023/09/19 03:34:04;;;;;;;10.85;2.92;;;14.50;99.90;;;14.01;100.00;97321.31;5029526;28;20497;-73
2023/09/19 03:36:34;;;;;;;6.47;2.53;;;14.60;99.90;;;14.22;100.00;97328.78;5045260;28;20072;-73
2023/09/19 03:39:04;;;;;;;14.13;3.10;;;14.60;99.90;;;14.25;100.00;97335.56;5045613;28;20085;-73
2023/09/19 03:41:33;;;;;;;7.05;2.55;;;14.50;99.90;;;14.20;100.00;97333.25;5045262;28;20057;-73
2023/09/19 03:44:00;;;;;;;5.78;2.53;;;14.60;99.90;;;14.26;100.00;97332.03;5047367;28;20045;-73
2023/09/19 03:46:28;;;;;;;8.27;2.80;;;14.60;99.90;;;14.16;100.00;97335.22;5028126;28;20055;-73
2023/09/19 03:48:55;;;;;;;6.15;2.60;;;14.60;99.90;;;14.07;100.00;97337.53;5046581;28;20106;-73
2023/09/19 03:51:22;;;;;;;7.95;2.40;;;14.60;99.90;;;14.13;100.00;97345.00;5043030;28;20544;-73
2023/09/19 03:53:50;;;;;;;11.10;3.88;;;14.70;99.90;;;14.10;100.00;97353.03;5043497;28;20569;-73
2023/09/19 03:56:17;;;;;;;12.38;3.10;;;14.60;99.90;;;14.07;100.00;97348.81;5043949;28;20107;-73
2023/09/19 03:58:44;;;;;;;9.35;2.70;;;14.60;99.90;;;14.10;100.00;97355.63;5044616;28;20048;-73
2023/09/19 04:01:13;;;;;;;11.52;2.78;;;14.50;99.90;;;14.07;100.00;97340.13;5027188;28;20045;-73
2023/09/19 04:03:47;;;;;;;10.13;2.42;;;14.50;99.90;;;13.98;100.00;97351.97;5058458;28;20456;-73
2023/09/19 04:06:16;;;;;;;9.35;2.50;;;14.50;99.90;;;13.86;100.00;97345.72;5044937;28;20250;-73
2023/09/19 04:08:44;;;;;;;14.75;2.78;;;14.50;99.90;;;13.95;100.00;97354.75;5040436;28;20041;-72
2023/09/19 04:11:11;;;;;;;11.48;2.72;;;14.50;99.90;;;13.91;100.00;97354.13;5028853;28;20048;-73
2023/09/19 04:13:39;;;;;;;10.70;2.00;;;14.40;99.90;;;13.96;100.00;97356.47;5042986;28;20601;-72
2023/09/19 04:16:07;;;;;;;7.53;1.73;;;14.40;99.90;;;13.88;100.00;97361.28;5041898;28;20049;-73
2023/09/19 04:18:38;;;;;;;13.43;2.47;;;14.50;99.90;;;13.86;100.00;97360.53;5045443;28;20512;-73
2023/09/19 04:21:05;;;;;;;10.88;2.20;;;14.40;99.90;;;13.84;100.00;97358.00;5041113;28;20149;-73
2023/09/19 04:23:33;;;;;;;6.07;1.85;;;14.40;99.90;;;13.85;100.00;97367.53;5040695;28;20509;-73
2023/09/19 04:26:00;;;;;;;10.68;2.30;;;14.40;99.90;;;13.88;100.00;97361.28;5043615;28;20049;-73
2023/09/19 04:28:30;;;;;;;8.32;2.05;;;14.40;99.90;;;13.85;100.00;97357.09;5044687;28;20270;-73
2023/09/19 04:30:59;;;;;;;7.00;2.03;;;14.40;99.90;;;13.91;100.00;97350.66;5042269;28;21035;-73
2023/09/19 04:33:29;;;;;;;9.98;1.75;;;14.50;99.90;;;13.92;100.00;97361.00;5039491;28;20071;-73
2023/09/19 04:35:56;;;;;;;5.07;1.25;;;14.50;99.90;;;13.96;100.00;97349.47;5041953;28;20112;-73
2023/09/19 04:38:34;;;;;;;9.68;1.80;;;14.40;99.90;;;13.87;100.00;97351.78;5041800;28;20056;-73
2023/09/19 04:41:01;;;;;;;7.85;1.70;;;14.40;99.90;;;13.76;100.00;97363.69;5044400;28;20115;-73
2023/09/19 04:43:30;;;;;;;6.85;1.88;;;14.40;99.90;;;13.79;100.00;97363.50;5042871;28;20053;-73
2023/09/19 04:46:00;;;;;;;7.05;1.65;;;14.40;99.90;;;13.76;100.00;97365.47;5056207;28;20060;-73
2023/09/19 04:48:29;;;;;;;10.18;1.58;;;14.40;99.90;;;13.62;100.00;97366.25;5042640;28;20056;-73
2023/09/19 04:50:56;;;;;;;10.25;2.00;;;14.30;99.90;;;13.60;100.00;97363.75;5043494;28;20602;-72
2023/09/19 04:53:23;;;;;;;7.35;1.50;;;14.30;99.90;;;13.63;100.00;97369.72;5043013;28;20107;-73
2023/09/19 04:55:55;;;;;;;9.65;1.67;;;14.30;99.90;;;13.54;100.00;97371.06;5041689;28;20122;-73
2023/09/19 04:58:23;;;;;;;5.65;1.15;;;14.20;99.90;;;13.60;100.00;97386.38;5041034;28;20049;-73
2023/09/19 05:00:51;;;;;;;10.00;2.17;;;14.20;99.90;;;13.56;100.00;97380.50;5039951;28;20060;-73
2023/09/19 05:03:19;;;;;;;5.53;1.83;;;14.20;99.90;;;13.67;100.00;97385.09;5044598;28;20056;-73
2023/09/19 05:05:47;;;;;;;4.85;1.45;;;14.20;99.90;;;13.60;100.00;97381.16;5043464;28;20115;-73
2023/09/19 05:08:15;;;;;;;5.93;1.50;;;14.20;99.90;;;13.59;100.00;97380.31;5036013;28;20114;-73
2023/09/19 05:10:42;;;;;;;6.80;1.60;;;14.20;99.90;;;13.60;100.00;97383.78;5035294;28;20114;-73
2023/09/19 05:13:09;;;;;;;12.52;1.70;;;14.30;99.90;;;13.58;100.00;97389.06;5044307;28;20049;-73
2023/09/19 05:15:36;;;;;;;11.32;1.90;;;14.30;99.90;;;13.65;100.00;97386.94;5042675;28;20098;-73
2023/09/19 05:18:05;;;;;;;11.13;1.90;;;14.30;99.90;;;13.60;100.00;97392.44;5042662;28;20149;-73
2023/09/19 05:20:35;;;;;;;7.10;2.03;;;14.30;99.90;;;13.60;100.00;97397.63;5044305;28;20524;-73
2023/09/19 05:23:05;;;;;;;6.25;1.85;;;14.20;99.90;;;13.61;100.00;97401.09;5044689;28;20513;-72
2023/09/19 05:25:36;;;;;;;7.50;1.92;;;14.20;99.90;;;13.63;100.00;97403.63;5043511;28;20056;-73
2023/09/19 05:28:09;;;;;;;11.77;1.80;;;14.20;99.90;;;13.67;100.00;97410.34;5027424;28;20091;-72
2023/09/19 05:30:38;;;;;;;6.60;1.70;;;14.20;99.90;;;13.65;100.00;97420.00;5042403;28;20049;-73
2023/09/19 05:33:06;;;;;;;9.88;2.00;;;14.20;99.90;;;13.71;100.00;97422.28;5044460;28;20049;-73
2023/09/19 05:35:33;;;;;;;8.68;1.98;;;14.20;99.90;;;13.60;100.00;97426.34;5044848;28;20467;-73
2023/09/19 05:38:00;;;;;;;9.00;1.50;;;14.10;99.90;;;13.77;100.00;97422.75;5045459;28;20134;-73
2023/09/19 05:40:27;;;;;;;9.23;1.80;;;14.20;99.90;;;13.79;100.00;97431.31;5058130;28;20049;-74
2023/09/19 05:42:54;;;;;;;5.32;1.50;;;14.20;99.90;;;13.79;100.00;97428.72;5023056;28;20068;-73
2023/09/19 05:45:22;;;;;;;8.60;1.73;;;14.20;99.90;;;13.86;100.00;97425.75;5058173;28;20163;-73
2023/09/19 05:47:51;;;;;;;10.00;1.80;;;14.20;99.90;;;13.88;100.00;97436.94;5044040;28;20052;-73
2023/09/19 05:50:20;;;;;;;8.10;2.30;;;14.20;99.90;;;13.80;100.00;97442.63;5043970;28;20502;-73
2023/09/19 05:52:55;;;;;;;12.50;1.60;;;14.20;99.90;;;13.90;100.00;97445.53;5042291;28;20085;-74
2023/09/19 05:55:26;;;;;;;9.57;1.45;;;14.30;99.90;;;13.87;100.00;97445.72;5042166;28;20064;-73
2023/09/19 05:57:53;;;;;;;9.82;1.70;;;14.30;99.90;;;13.83;100.00;97439.81;5042730;28;20053;-73
2023/09/19 06:00:22;;;;;;;8.10;2.00;;;14.30;99.90;;;13.85;100.00;97455.41;5043958;28;20045;-72
2023/09/19 06:02:59;;;;;;;6.60;1.65;;;14.30;99.90;;;13.92;100.00;97461.94;5041627;28;20053;-73
2023/09/19 06:05:30;;;;;;;6.68;1.20;;;14.30;99.90;;;14.10;100.00;97470.47;5043163;28;20048;-73
2023/09/19 06:08:01;;;;;;;12.73;1.77;;;14.30;99.90;;;14.00;100.00;97467.53;5044268;28;20053;-73
2023/09/19 06:10:31;;;;;;;11.48;2.15;;;14.30;99.90;;;13.98;100.00;97467.63;5042667;28;20581;-73
2023/09/19 06:12:58;;;;;;;12.55;2.50;;;14.30;99.90;;;14.06;100.00;97454.13;5043074;28;20056;-73
2023/09/19 06:15:26;;;;;;;7.80;1.42;;;14.20;99.90;;;14.14;100.00;97457.16;5041995;28;20127;-73
2023/09/19 06:17:55;;;;;;;9.93;1.73;;;14.30;99.90;;;14.13;100.00;97459.84;5044926;28;20063;-73
2023/09/19 06:20:25;;;;;;;5.75;1.10;;;14.40;99.90;;;14.22;100.00;97460.13;5027157;28;20044;-73
2023/09/19 06:22:53;;;;;;;9.10;1.60;;;14.40;99.90;;;14.23;100.00;97467.03;5043903;28;20049;-73
2023/09/19 06:25:22;;;;;;;6.30;1.50;;;14.40;99.90;;;14.13;100.00;97463.28;5044605;28;20049;-73
2023/09/19 06:27:55;;;;;;;15.88;1.85;;;14.40;99.90;;;14.07;100.00;97462.78;5043453;28;20076;-74
2023/09/19 06:30:24;;;;;;;7.95;1.65;;;14.50;99.90;;;14.13;100.00;97449.41;5044488;28;20573;-73
2023/09/19 06:32:57;;;;;;;7.18;1.50;;;14.40;99.90;;;14.19;100.00;97457.72;5045961;28;20057;-74
2023/09/19 06:35:26;;;;;;;11.23;1.52;;;14.40;99.90;;;14.04;100.00;97469.03;5045290;28;20098;-73
2023/09/19 06:37:53;;;;;;;8.23;1.45;;;14.50;99.90;;;14.07;100.00;97470.63;5027065;28;20049;-74
2023/09/19 06:40:24;;;;;;;5.30;0.88;;;14.50;99.90;;;14.17;100.00;97470.00;5056887;28;20056;-73
2023/09/19 06:42:55;;;;;;;7.72;1.20;;;14.40;99.90;;;14.20;100.00;97469.81;5044521;28;20441;-73
2023/09/19 06:45:26;;;;;;;6.75;1.73;;;14.60;99.90;;;14.15;100.00;97476.25;5042339;28;20048;-74
2023/09/19 06:47:57;;;;;;;7.32;1.30;;;14.60;99.90;;;14.27;100.00;97485.13;5042990;28;20616;-74
2023/09/19 06:50:27;;;;;;;11.32;1.98;;;14.60;99.90;;;14.41;100.00;97488.63;5041453;28;20057;-74
2023/09/19 06:52:57;;;;;;;6.93;1.23;;;14.60;99.90;;;14.20;100.00;97482.03;5042322;28;20106;-73
2023/09/19 06:55:27;;;;;;;7.38;1.40;;;14.50;99.90;;;14.30;100.00;97479.72;5037833;28;20607;-73
2023/09/19 06:57:55;;;;;;;9.20;1.52;;;14.60;99.90;;;14.20;100.00;97487.25;5040603;28;20069;-74
2023/09/19 07:00:23;;;;;;;11.50;1.85;;;14.60;99.90;;;14.30;100.00;97475.34;5043203;28;20079;-73
2023/09/19 07:03:03;;;;;;;11.25;1.42;;;14.60;99.90;;;14.31;100.00;97494.47;5042068;28;20094;-74
2023/09/19 07:05:32;;;;;;;6.43;1.23;;;14.60;99.90;;;14.35;100.00;97502.03;5029379;28;20476;-73
2023/09/19 07:08:03;;;;;;;9.75;1.27;;;14.60;99.90;;;14.41;100.00;97511.25;5044112;28;20126;-74
2023/09/19 07:10:30;;;;;;;9.75;1.60;;;14.50;99.90;;;14.36;100.00;97514.13;5059727;28;20049;-74
2023/09/19 07:13:08;;;;;;;9.45;1.30;;;14.50;99.90;;;14.55;100.00;97534.84;5039322;28;20057;-73
2023/09/19 07:15:46;;;;;;;8.23;1.60;;;14.50;99.90;;;14.26;100.00;97520.84;5041114;28;20051;-73
2023/09/19 07:18:16;;;;;;;6.80;1.33;;;14.50;99.90;;;14.35;100.00;97516.84;5043947;28;20087;-75
2023/09/19 07:20:51;;;;;;;10.70;1.63;;;14.50;99.90;;;14.42;100.00;97536.44;5025949;28;20527;-74
2023/09/19 07:23:20;;;;;;;7.47;1.45;;;14.60;99.90;;;14.77;100.00;97536.97;5042480;28;20107;-76
2023/09/19 07:25:48;;;;;;;12.60;2.08;;;14.70;99.90;;;14.69;100.00;97544.47;5032415;28;20053;-75
2023/09/19 07:28:16;;;;;;;14.02;1.95;;;14.90;99.90;;;14.81;100.00;97545.50;5030715;28;20049;-75
2023/09/19 07:30:43;;;;;;;9.20;1.45;;;15.00;99.90;;;15.09;100.00;97555.09;5026408;28;20649;-74
2023/09/19 07:33:11;;;;;;;8.80;1.90;;;15.10;99.90;;;14.82;100.00;97545.41;5028779;28;20041;-74
2023/09/19 07:35:41;;;;;;;9.95;1.83;;;15.20;99.90;;;14.92;100.00;97545.69;5029829;28;20053;-73
2023/09/19 07:38:11;;;;;;;8.85;1.27;;;15.20;99.90;;;14.83;100.00;97560.16;5033940;28;20056;-73
2023/09/19 07:40:39;;;;;;;12.25;1.88;;;15.10;99.90;;;14.63;100.00;97558.72;5030059;28;20059;-74
2023/09/19 07:43:07;;;;;;;10.05;1.63;;;15.00;99.90;;;14.77;100.00;97568.34;5032786;28;20132;-74
2023/09/19 07:45:36;;;;;;;7.22;1.67;;;15.20;99.90;;;15.14;100.00;97578.34;5031922;28;20045;-74
2023/09/19 07:48:04;;;;;;;9.98;1.70;;;15.00;99.90;;;15.20;100.00;97573.59;5032921;28;20208;-74
2023/09/19 07:50:37;;;;;;;10.98;1.77;;;15.10;99.90;;;15.15;100.00;97587.88;5027978;28;20580;-74
2023/09/19 07:53:04;;;;;;;17.38;2.15;;;15.10;99.90;;;14.99;100.00;97586.19;5030072;28;20067;-74
2023/09/19 07:55:33;;;;;;;16.92;2.30;;;15.20;99.90;;;14.68;100.00;97581.94;5027597;28;20053;-73
2023/09/19 07:58:05;;;;;;;8.02;1.50;;;15.30;99.90;;;14.69;100.00;97582.78;5029797;28;20628;-73
2023/09/19 08:00:34;;;;;;;9.85;1.80;;;15.20;99.90;;;15.06;100.00;97590.13;5028675;28;20052;-73
2023/09/19 08:03:04;;;;;;;6.65;1.55;;;15.20;99.90;;;15.06;100.00;97578.81;5051726;28;20045;-73
2023/09/19 08:05:43;;;;;;;20.00;2.03;;;15.40;99.90;;;15.24;100.00;97595.16;5042550;28;20048;-74
2023/09/19 08:08:13;;;;;;;7.03;1.55;;;15.40;99.90;;;15.45;100.00;97583.38;5037351;28;20498;-74
2023/09/19 08:10:43;;;;;;;13.32;1.65;;;15.60;99.90;;;15.80;100.00;97600.44;5038585;28;20067;-74
2023/09/19 08:13:13;;;;;;;12.90;2.03;;;16.00;99.90;;;15.55;100.00;97595.88;5041705;28;20052;-75
2023/09/19 08:15:44;;;;;;;12.00;2.03;;;16.10;99.90;;;15.57;100.00;97594.00;5040933;28;20049;-74
2023/09/19 08:18:13;;;;;;;11.45;1.50;;;16.40;99.90;;;15.73;100.00;97593.91;5041170;28;20044;-75
2023/09/19 08:20:42;;;;;;;8.25;1.45;;;16.70;99.90;;;16.14;100.00;97595.66;5041574;28;20081;-75
2023/09/19 08:23:09;;;;;;;13.55;2.15;;;16.70;99.90;;;16.57;100.00;97598.91;5041297;28;20114;-74
2023/09/19 08:25:38;;;;;;;12.93;2.17;;;17.20;99.90;;;16.50;100.00;97587.19;5040532;28;20123;-75
2023/09/19 08:28:08;;;;;;;10.32;2.22;;;17.20;99.90;;;17.50;100.00;97590.88;5041255;28;20094;-74
2023/09/19 08:30:40;;;;;;;12.23;2.38;;;17.50;99.90;;;17.99;100.00;97587.38;5041680;28;20648;-75
2023/09/19 08:33:07;;;;;;;11.10;2.45;;;18.00;99.90;;;17.37;100.00;97592.69;5042125;28;20382;-74
2023/09/19 08:35:35;;;;;;;10.65;2.00;;;18.50;99.90;;;17.39;100.00;97596.88;5058187;28;20653;-75
2023/09/19 08:38:03;;;;;;;9.73;2.00;;;18.60;99.90;;;16.84;100.00;97595.44;5042174;28;20045;-76
2023/09/19 08:40:33;;;;;;;12.35;2.25;;;18.50;99.90;;;17.22;100.00;97605.94;5057613;28;20045;-74
2023/09/19 08:43:00;;;;;;;11.55;2.22;;;17.90;99.90;;;17.11;100.00;97603.19;5044586;28;20052;-73
2023/09/19 08:45:28;;;;;;;18.83;2.70;;;18.00;99.90;;;17.06;100.00;97600.91;5045245;28;20071;-74
2023/09/19 08:48:27;;;;;;;11.65;2.00;;;18.10;99.90;;;17.77;100.00;97606.47;5044770;28;20057;-75
2023/09/19 08:51:06;;;;;;;8.50;1.48;;;18.10;99.90;;;17.61;100.00;97608.47;5045122;28;20063;-76
2023/09/19 08:54:06;;;;;;;5.90;1.52;;;17.90;99.90;;;18.28;100.00;97615.97;5056731;28;20044;-76
2023/09/19 08:56:36;;;;;;;13.32;2.47;;;18.40;99.90;;;17.38;100.00;97625.84;5057082;28;20456;-74
2023/09/19 08:59:04;;;;;;;9.88;1.92;;;18.10;99.90;;;17.81;100.00;97614.94;5043780;28;20106;-75
2023/09/19 09:01:32;;;;;;;9.93;1.90;;;18.00;99.90;;;17.47;100.00;97619.94;5044886;28;20049;-73
2023/09/19 09:04:02;;;;;;;8.07;1.52;;;18.10;99.90;;;17.76;100.00;97628.41;5040366;28;20140;-74
2023/09/19 09:06:32;;;;;;;5.57;1.70;;;17.60;99.90;;;18.19;100.00;97618.28;5043219;28;20132;-74
2023/09/19 09:09:20;;;;;;;8.70;2.55;;;18.00;99.90;;;17.00;100.00;97610.97;5041980;28;20159;-75
2023/09/19 09:11:52;;;;;;;7.40;1.60;;;18.30;99.90;;;16.76;100.00;97640.47;5043251;28;20052;-75
2023/09/19 09:14:23;;;;;;;16.42;2.65;;;17.90;99.90;;;16.74;100.00;97631.88;5042506;28;20048;-74
2023/09/19 09:16:51;;;;;;;6.72;1.50;;;17.60;99.90;;;16.73;100.00;97643.28;5043798;28;20132;-74
2023/09/19 09:19:24;;;;;;;10.25;1.92;;;17.30;99.90;;;17.34;100.00;97639.16;5039746;28;20071;-74
2023/09/19 09:21:51;;;;;;;8.88;2.42;;;17.20;99.90;;;16.41;100.00;97634.94;5042402;28;20477;-74
2023/09/19 09:24:30;;;;;;;11.20;2.22;;;16.80;99.90;;;16.48;100.00;97631.81;5042656;28;20041;-74
2023/09/19 09:26:58;;;;;;;6.68;1.80;;;16.80;99.90;;;15.87;100.00;97635.75;5041326;28;20235;-74
2023/09/19 09:29:49;;;;;;;9.70;2.28;;;16.50;99.90;;;16.83;100.00;97623.44;5042898;28;20122;-74
2023/09/19 09:32:31;;;;;;;8.38;1.58;;;17.10;99.90;;;16.86;100.00;97627.63;5043268;28;20075;-75
2023/09/19 09:35:09;;;;;;;5.15;1.35;;;17.20;99.90;;;16.89;100.00;97635.28;5041667;28;20083;-73
2023/09/19 09:37:38;;;;;;;9.48;1.90;;;17.20;99.90;;;17.00;100.00;97626.69;5053987;28;20138;-74
2023/09/19 09:42:46;;;;;;;9.48;1.58;;;17.50;99.90;;;18.42;100.00;97622.81;5044511;28;20617;-75
2023/09/19 09:45:28;;;;;;;6.80;1.73;;;18.20;99.90;;;19.35;100.00;97614.94;5044094;28;20120;-74
2023/09/19 09:47:55;;;;;;;10.20;1.83;;;19.30;99.90;;;18.44;100.00;97607.78;5057482;28;20123;-73
2023/09/19 09:53:30;;;;;;;10.57;2.00;;;19.60;99.90;;;18.75;100.00;97646.63;5043554;28;20049;-73
2023/09/19 09:56:05;;;;;;;7.15;1.60;;;19.80;99.90;;;19.63;100.00;97611.81;5045173;28;20045;-74
2023/09/19 09:58:56;;;;;;;6.45;1.20;;;19.20;99.90;;;19.41;100.00;97623.19;5044768;28;20406;-74
2023/09/19 10:01:26;;;;;;;7.82;1.50;;;19.30;99.90;;;18.97;100.00;97603.75;5042459;28;20543;-73
2023/09/19 10:04:00;;;;;;;9.43;2.22;;;19.70;99.90;;;17.95;100.00;97614.84;5042037;28;20080;-74
2023/09/19 10:06:46;;;;;;;4.30;1.20;;;19.40;99.90;;;18.30;100.00;97619.31;5041579;28;20514;-75
2023/09/19 10:09:17;;;;;;;6.90;1.40;;;19.20;99.90;;;18.26;100.00;97609.97;5040677;28;20116;-75
2023/09/19 10:11:47;;;;;;;6.20;1.60;;;18.50;99.90;;;17.45;100.00;97620.06;5024807;28;20103;-74
2023/09/19 10:14:23;;;;;;;7.57;1.65;;;18.20;99.90;;;17.80;100.00;97602.78;5041714;28;20049;-74
2023/09/19 10:16:55;;;;;;;8.80;2.05;;;18.20;99.90;;;17.56;100.00;97635.03;5037703;28;20057;-74
2023/09/19 10:19:33;;;;;;;8.20;1.67;;;18.10;99.90;;;17.42;100.00;97611.56;5041692;28;20138;-74
2023/09/19 10:22:04;;;;;;;9.65;1.58;;;18.00;99.90;;;17.79;100.00;97620.31;5041439;28;20057;-74
2023/09/19 10:24:36;;;;;;;9.63;1.60;;;18.00;99.90;;;17.88;100.00;97613.56;5027187;28;20041;-75
2023/09/19 10:27:16;;;;;;;8.45;1.85;;;18.20;99.90;;;18.01;100.00;97629.31;5056586;28;20549;-75
2023/09/19 10:29:47;;;;;;;7.43;1.70;;;18.20;99.90;;;18.06;100.00;97607.00;5040207;28;20107;-74
2023/09/19 10:32:19;;;;;;;11.27;1.60;;;18.60;99.90;;;18.39;100.00;97608.97;5042344;28;20489;-75